Time;durP1;ratioP1;P1;durP2;ratioP2;P2;SDS_P1;SDS_P2;PMS_P1;PMS_P2;Temp;Humidity;BMP_temperature;BMP_pressure;BME280_temperature;BME280_humidity;BME280_pressure;Samples;Min_cycle;Max_cycle;Signal;HPM_P1;HPM_P2
2022/04/05 04:16:21;;;;;;;3.47;3.28;;;2.60;99.90;;;;;;5118599;23;20233;-65
2022/04/05 04:18:48;;;;;;;3.45;3.25;;;2.70;99.90;;;;;;4994175;28;20202;-65
2022/04/05 04:21:15;;;;;;;4.03;3.80;;;2.70;99.90;;;;;;4994205;28;20230;-65
2022/04/05 04:23:42;;;;;;;3.75;3.42;;;2.70;99.90;;;;;;4993755;28;20741;-65
2022/04/05 04:26:09;;;;;;;3.67;3.38;;;2.70;99.90;;;;;;4993822;28;20225;-65
2022/04/05 04:28:36;;;;;;;3.95;3.75;;;2.70;99.90;;;;;;4994131;28;20214;-65
2022/04/05 04:31:03;;;;;;;3.15;3.05;;;2.70;99.90;;;;;;4993924;28;20301;-65
2022/04/05 04:33:31;;;;;;;3.60;3.40;;;2.70;99.90;;;;;;4994072;28;20293;-65
2022/04/05 04:35:59;;;;;;;3.70;3.50;;;2.70;99.90;;;;;;4993809;28;20229;-65
2022/04/05 04:38:26;;;;;;;3.35;3.15;;;2.70;99.90;;;;;;4994206;28;20225;-65
2022/04/05 04:40:53;;;;;;;3.55;3.33;;;2.70;99.90;;;;;;4994500;28;20210;-65
2022/04/05 04:43:23;;;;;;;4.32;3.92;;;2.70;99.90;;;;;;4993973;28;20289;-65
2022/04/05 04:45:49;;;;;;;3.75;3.47;;;2.70;99.90;;;;;;4994235;28;20226;-70
2022/04/05 04:48:17;;;;;;;5.88;5.38;;;2.70;99.90;;;;;;4994139;28;20764;-66
2022/04/05 04:50:45;;;;;;;5.05;4.55;;;2.70;99.90;;;;;;4993619;28;20608;-67
2022/04/05 04:53:12;;;;;;;4.78;4.45;;;2.70;99.90;;;;;;4993902;28;20206;-67
2022/04/05 04:55:39;;;;;;;4.63;4.25;;;2.70;99.90;;;;;;4993638;28;20595;-66
2022/04/05 04:58:06;;;;;;;3.90;3.63;;;2.70;99.90;;;;;;4993823;28;20204;-66
2022/04/05 05:00:33;;;;;;;4.10;3.85;;;2.70;99.90;;;;;;4993860;28;20206;-66
2022/04/05 05:02:59;;;;;;;4.25;3.95;;;2.70;99.90;;;;;;4993851;28;20230;-66
2022/04/05 05:05:26;;;;;;;4.70;4.30;;;2.70;99.90;;;;;;4993924;28;20226;-67
2022/04/05 10:03:36;;;;;;;3.10;2.90;;;10.60;62.50;;;;;;5214112;23;20230;-67
2022/04/05 10:06:04;;;;;;;3.40;2.35;;;10.80;61.90;;;;;;4996692;28;20304;-66
2022/04/05 10:08:32;;;;;;;2.35;2.25;;;10.90;60.20;;;;;;4996694;28;20229;-67
2022/04/05 10:11:00;;;;;;;2.28;2.17;;;11.10;61.80;;;;;;4996623;28;20206;-66
2022/04/05 10:13:27;;;;;;;3.00;2.80;;;11.40;61.60;;;;;;4997160;28;20226;-66
2022/04/05 10:15:54;;;;;;;2.75;2.55;;;11.60;60.50;;;;;;4996395;28;20294;-64
2022/04/05 10:18:22;;;;;;;2.47;2.38;;;11.80;59.60;;;;;;4996406;28;20194;-65
2022/04/05 10:20:52;;;;;;;3.15;2.70;;;12.10;58.40;;;;;;4996567;28;20289;-65
2022/04/05 10:23:20;;;;;;;2.10;2.00;;;12.30;57.80;;;;;;4996392;28;20258;-65
2022/04/05 10:25:51;;;;;;;2.22;2.13;;;12.50;56.60;;;;;;4996487;28;20203;-65
2022/04/05 10:28:22;;;;;;;3.28;2.97;;;12.60;55.00;;;;;;4996806;28;20589;-67
2022/04/05 10:30:56;;;;;;;2.25;2.08;;;12.70;53.40;;;;;;4996444;28;20199;-67
2022/04/05 10:33:29;;;;;;;1.90;1.80;;;12.80;53.60;;;;;;4995608;28;20237;-66
2022/04/05 10:36:00;;;;;;;3.15;2.38;;;13.00;55.00;;;;;;4995892;28;20737;-68
2022/04/05 10:38:29;;;;;;;2.00;1.90;;;13.30;52.80;;;;;;4997492;28;20697;-64
2022/04/05 10:41:16;;;;;;;1.98;1.88;;;13.60;52.80;;;;;;4996425;28;20197;-65
2022/04/05 10:43:44;;;;;;;1.33;1.33;;;13.90;51.00;;;;;;4996238;28;20281;-64
2022/04/05 10:46:12;;;;;;;2.03;2.00;;;14.00;50.50;;;;;;4996606;28;20206;-65
2022/04/05 10:48:55;;;;;;;1.90;1.90;;;13.70;50.00;;;;;;4996747;28;20226;-65
2022/04/05 10:51:32;;;;;;;1.95;1.70;;;13.50;49.60;;;;;;4996168;28;20187;-66
2022/04/05 10:54:23;;;;;;;1.55;1.45;;;13.30;51.30;;;;;;4995887;28;20230;-67
2022/04/05 10:57:20;;;;;;;1.70;1.60;;;13.20;51.90;;;;;;4996696;28;20241;-65
2022/04/05 10:59:48;;;;;;;1.80;1.70;;;13.30;53.70;;;;;;4984001;28;20301;-66
2022/04/05 11:02:46;;;;;;;1.98;1.60;;;13.40;52.70;;;;;;4995921;28;20228;-66
2022/04/05 11:05:37;;;;;;;1.52;1.42;;;13.40;53.90;;;;;;4935805;29;20213;-68
2022/04/05 11:08:12;;;;;;;1.60;1.60;;;13.40;51.30;;;;;;4991981;28;20230;-68
2022/04/05 11:10:55;;;;;;;1.80;1.70;;;13.30;52.80;;;;;;4995563;28;20193;-67
2022/04/05 11:13:42;;;;;;;1.60;1.50;;;13.10;53.90;;;;;;4994948;28;20225;-67
2022/04/05 11:16:13;;;;;;;1.63;1.60;;;13.10;54.40;;;;;;4995825;28;20202;-68
2022/04/05 11:18:43;;;;;;;1.30;1.20;;;13.10;54.10;;;;;;4995377;28;20349;-67
2022/04/05 11:21:11;;;;;;;1.60;1.50;;;13.20;54.80;;;;;;4995486;28;20241;-68
2022/04/05 11:23:43;;;;;;;1.75;1.65;;;13.30;53.80;;;;;;4994897;28;20313;-66
2022/04/05 11:26:32;;;;;;;1.83;1.73;;;13.30;52.50;;;;;;4995446;28;20197;-67
2022/04/05 11:29:00;;;;;;;1.67;1.63;;;13.30;54.30;;;;;;4995446;28;20207;-67
2022/04/05 11:31:32;;;;;;;1.48;1.38;;;13.20;53.30;;;;;;4995293;28;20199;-67
2022/04/05 11:33:59;;;;;;;1.35;1.35;;;13.20;53.80;;;;;;4994766;28;20226;-68
2022/04/05 11:36:28;;;;;;;1.60;1.50;;;13.20;54.20;;;;;;4995109;28;20203;-68
2022/04/05 11:38:58;;;;;;;3.58;2.40;;;13.20;53.70;;;;;;4994578;28;20246;-68
2022/04/05 11:41:26;;;;;;;2.35;2.20;;;13.00;53.30;;;;;;4994907;28;20207;-67
2022/04/05 11:43:55;;;;;;;1.80;1.70;;;12.80;54.50;;;;;;4994542;28;20228;-67
2022/04/05 11:46:27;;;;;;;1.98;1.95;;;12.80;55.20;;;;;;4994962;28;20602;-67
2022/04/05 11:48:56;;;;;;;2.00;1.90;;;12.80;54.30;;;;;;4994959;28;20211;-67
2022/04/05 11:51:25;;;;;;;2.05;1.95;;;12.90;55.30;;;;;;4994914;28;20298;-67
2022/04/05 11:53:52;;;;;;;1.60;1.60;;;12.90;54.50;;;;;;4994836;28;20218;-67
2022/04/05 11:56:22;;;;;;;2.13;1.90;;;12.90;53.90;;;;;;4994733;28;20302;-67
2022/04/05 11:58:51;;;;;;;2.85;2.20;;;12.70;54.90;;;;;;4995071;28;20218;-67
2022/04/05 12:01:24;;;;;;;1.90;1.90;;;12.40;56.00;;;;;;4994934;28;20569;-66
2022/04/05 12:03:54;;;;;;;2.67;2.47;;;12.30;58.40;;;;;;4994882;28;20238;-66
2022/04/05 12:06:23;;;;;;;2.70;2.50;;;12.20;58.50;;;;;;4994708;28;20261;-66
2022/04/05 12:08:52;;;;;;;2.63;2.42;;;12.00;59.40;;;;;;4994261;28;20713;-66
2022/04/05 12:11:22;;;;;;;2.95;2.22;;;12.00;62.00;;;;;;4994594;28;20230;-66
2022/04/05 12:13:54;;;;;;;2.47;2.28;;;12.10;63.20;;;;;;4994609;28;20313;-67
2022/04/05 12:16:21;;;;;;;1.85;1.75;;;12.00;62.00;;;;;;4994195;28;20669;-67
2022/04/05 12:18:49;;;;;;;2.38;2.20;;;12.00;66.00;;;;;;4994323;28;20198;-67
2022/04/05 12:21:15;;;;;;;1.85;1.70;;;12.00;63.70;;;;;;4994214;28;20670;-67
2022/04/05 12:23:44;;;;;;;1.10;1.10;;;11.90;66.40;;;;;;4994673;28;20244;-67
2022/04/05 12:26:14;;;;;;;2.03;1.98;;;11.80;68.20;;;;;;4993514;28;20206;-67
2022/04/05 12:28:45;;;;;;;0.90;0.90;;;11.80;70.00;;;;;;4994204;28;20280;-68
2022/04/05 12:31:15;;;;;;;1.25;1.00;;;11.80;71.30;;;;;;4995058;28;20183;-67
2022/04/05 12:33:52;;;;;;;1.02;1.02;;;11.80;72.40;;;;;;4994260;28;20642;-67
2022/04/05 12:36:21;;;;;;;1.42;1.40;;;11.80;71.70;;;;;;4994339;28;20182;-67
2022/04/05 12:38:48;;;;;;;1.38;1.30;;;11.70;77.80;;;;;;4994563;28;20249;-68
2022/04/05 12:41:16;;;;;;;1.38;1.30;;;11.70;78.40;;;;;;4994005;28;20203;-67
2022/04/05 12:43:46;;;;;;;1.00;1.00;;;11.60;81.80;;;;;;4993751;28;20706;-67
2022/04/05 12:46:14;;;;;;;1.35;1.35;;;11.70;81.90;;;;;;4993788;28;20297;-67
2022/04/05 12:48:42;;;;;;;1.55;1.30;;;11.60;81.80;;;;;;4994018;28;20230;-67
2022/04/05 12:51:09;;;;;;;1.30;1.30;;;11.60;83.60;;;;;;4993898;28;20202;-67
2022/04/05 12:53:38;;;;;;;0.95;0.95;;;11.60;88.20;;;;;;4993831;28;20227;-67
2022/04/05 12:56:14;;;;;;;1.00;1.00;;;11.60;88.70;;;;;;4994031;28;20569;-68
2022/04/05 12:58:45;;;;;;;1.15;1.15;;;11.60;90.60;;;;;;4993911;28;20191;-68
2022/04/05 13:01:17;;;;;;;0.90;0.90;;;11.60;89.20;;;;;;4993817;28;20187;-68
2022/04/05 13:03:44;;;;;;;0.80;0.80;;;11.70;91.60;;;;;;4993406;28;20664;-68
2022/04/05 13:06:23;;;;;;;0.65;0.65;;;11.70;91.70;;;;;;4993833;28;20207;-68
2022/04/05 13:08:50;;;;;;;1.20;1.20;;;11.90;92.30;;;;;;4993852;28;20207;-68
2022/04/05 13:11:26;;;;;;;0.90;0.90;;;11.80;89.70;;;;;;4993678;28;20203;-68
2022/04/05 13:14:05;;;;;;;0.80;0.80;;;11.90;90.30;;;;;;4993661;28;20551;-68
2022/04/05 13:16:33;;;;;;;1.00;1.00;;;11.80;91.30;;;;;;4993301;28;20289;-68
2022/04/05 13:19:11;;;;;;;1.13;1.13;;;11.70;91.80;;;;;;4993550;28;20205;-68
2022/04/05 13:21:44;;;;;;;0.70;0.70;;;11.70;93.60;;;;;;4993802;28;20191;-68
2022/04/05 13:24:11;;;;;;;0.73;0.73;;;11.60;93.60;;;;;;4993734;28;20206;-68
2022/04/05 13:26:44;;;;;;;0.80;0.80;;;11.60;97.10;;;;;;4993623;28;20213;-68
2022/04/05 13:29:14;;;;;;;0.80;0.80;;;11.50;96.00;;;;;;4993152;28;20314;-68
2022/04/05 13:31:43;;;;;;;1.00;1.00;;;11.50;98.20;;;;;;4993476;28;20208;-68
2022/04/05 13:34:10;;;;;;;1.13;1.13;;;11.50;96.40;;;;;;4993316;28;20230;-68
2022/04/05 13:36:38;;;;;;;1.00;1.00;;;11.40;95.50;;;;;;4994246;28;20210;-68
2022/04/05 13:39:05;;;;;;;0.90;0.90;;;11.40;94.50;;;;;;4997199;28;20289;-68
2022/04/05 13:41:33;;;;;;;0.98;0.82;;;11.40;97.00;;;;;;4997255;28;20208;-68
2022/04/05 13:44:00;;;;;;;2.88;0.95;;;11.50;97.20;;;;;;4996638;28;20269;-68
2022/04/05 13:46:31;;;;;;;0.90;0.90;;;11.60;97.40;;;;;;4996935;28;20293;-68
2022/04/05 13:48:58;;;;;;;0.80;0.80;;;11.70;93.50;;;;;;4997327;28;20215;-68
2022/04/05 13:51:26;;;;;;;0.77;0.77;;;11.90;91.70;;;;;;4996596;28;20207;-68
2022/04/05 13:53:53;;;;;;;0.95;0.95;;;12.10;90.70;;;;;;4996917;28;20318;-68
2022/04/05 13:56:20;;;;;;;1.30;1.20;;;12.10;88.90;;;;;;4996525;28;20715;-68
2022/04/05 13:58:47;;;;;;;1.08;1.08;;;12.10;84.60;;;;;;4997005;28;20535;-68
2022/04/05 14:01:15;;;;;;;0.90;0.90;;;12.00;83.10;;;;;;4996865;28;20203;-68
2022/04/05 14:03:43;;;;;;;0.82;0.82;;;11.90;83.10;;;;;;4996593;28;20321;-67
2022/04/05 14:06:10;;;;;;;1.10;1.10;;;11.80;86.70;;;;;;4996685;28;20230;-68
2022/04/05 14:08:37;;;;;;;0.98;0.98;;;11.70;85.60;;;;;;4996837;28;20580;-68
2022/04/05 14:11:05;;;;;;;0.77;0.77;;;11.60;86.30;;;;;;4996292;28;20670;-68
2022/04/05 14:13:32;;;;;;;1.30;1.20;;;11.60;85.80;;;;;;4996297;28;20227;-68
2022/04/05 14:15:59;;;;;;;1.13;1.10;;;11.50;89.10;;;;;;4996432;28;20617;-68
2022/04/05 14:18:26;;;;;;;1.02;1.02;;;11.50;88.10;;;;;;4996142;28;20632;-68
2022/04/05 14:20:54;;;;;;;2.28;0.95;;;11.50;91.60;;;;;;4996350;28;20294;-68
2022/04/05 14:23:21;;;;;;;0.70;0.70;;;11.50;90.20;;;;;;4996239;28;20223;-68
2022/04/05 14:25:48;;;;;;;0.90;0.90;;;11.40;88.80;;;;;;4996128;28;20293;-67
2022/04/05 14:28:15;;;;;;;0.98;0.93;;;11.50;90.30;;;;;;4996158;28;20202;-68
2022/04/05 14:30:44;;;;;;;0.80;0.80;;;11.50;90.40;;;;;;4996384;28;20280;-68
2022/04/05 14:33:11;;;;;;;0.93;0.93;;;11.50;91.20;;;;;;4996151;28;20309;-66
2022/04/05 14:35:38;;;;;;;0.90;0.90;;;11.40;91.10;;;;;;4996317;28;20293;-65
2022/04/05 14:38:07;;;;;;;0.80;0.80;;;11.40;94.10;;;;;;4996100;28;20242;-65
2022/04/05 14:40:36;;;;;;;1.38;1.38;;;11.40;92.10;;;;;;4996252;28;20195;-66
2022/04/05 14:43:03;;;;;;;1.27;1.27;;;11.30;93.30;;;;;;4996074;28;20257;-65
2022/04/05 14:45:30;;;;;;;1.33;1.17;;;11.20;93.10;;;;;;4995985;28;20638;-65
2022/04/05 14:47:57;;;;;;;1.17;1.17;;;11.10;94.10;;;;;;4995443;28;20203;-65
2022/04/05 14:50:24;;;;;;;1.48;1.00;;;11.20;96.30;;;;;;4995792;28;20306;-64
2022/04/05 14:52:51;;;;;;;1.30;1.27;;;11.20;95.60;;;;;;4995972;28;20272;-65
2022/04/05 14:55:20;;;;;;;1.42;1.40;;;11.20;94.90;;;;;;4995561;28;20206;-66
2022/04/05 14:57:47;;;;;;;1.27;1.27;;;11.20;95.80;;;;;;4995851;28;20202;-66
2022/04/05 15:00:16;;;;;;;1.52;1.42;;;11.20;96.10;;;;;;4996278;28;20198;-65
2022/04/05 15:02:45;;;;;;;1.00;1.00;;;11.30;97.40;;;;;;4996245;28;20237;-65
2022/04/05 15:05:13;;;;;;;1.10;1.10;;;11.20;95.60;;;;;;4995823;28;20330;-65
2022/04/05 15:07:40;;;;;;;1.20;1.20;;;11.20;95.50;;;;;;4995487;28;20213;-65
2022/04/05 15:10:08;;;;;;;1.50;1.40;;;11.30;95.90;;;;;;4995734;28;20214;-66
2022/04/05 15:12:37;;;;;;;1.10;1.10;;;11.10;95.60;;;;;;4995031;28;20307;-65
2022/04/05 15:15:05;;;;;;;1.13;1.13;;;11.00;97.80;;;;;;4995245;28;20249;-65
2022/04/05 15:17:31;;;;;;;1.20;1.20;;;11.00;99.00;;;;;;4995448;28;20205;-65
2022/04/05 15:19:58;;;;;;;1.20;1.20;;;10.90;99.70;;;;;;4995173;28;20234;-65
2022/04/05 15:22:25;;;;;;;1.35;1.33;;;10.90;99.90;;;;;;4994765;28;20682;-65
2022/04/05 15:24:52;;;;;;;1.35;1.30;;;10.80;99.90;;;;;;4995146;28;20206;-65
2022/04/05 15:27:19;;;;;;;1.35;1.35;;;10.80;99.90;;;;;;4995066;28;20621;-65
2022/04/05 15:29:47;;;;;;;1.13;1.13;;;10.70;99.90;;;;;;4995097;28;20305;-64
2022/04/05 15:32:17;;;;;;;1.10;1.10;;;10.70;99.90;;;;;;4994653;28;20595;-65
2022/04/05 15:34:45;;;;;;;1.27;1.20;;;10.70;99.90;;;;;;4995147;28;20186;-65
2022/04/05 15:37:12;;;;;;;1.02;1.02;;;10.70;99.90;;;;;;4995213;28;20213;-66
2022/04/05 15:39:41;;;;;;;0.95;0.95;;;10.70;99.90;;;;;;4995020;28;20302;-66
2022/04/05 15:42:08;;;;;;;0.80;0.80;;;10.80;99.90;;;;;;4995165;28;20233;-66
2022/04/05 15:44:38;;;;;;;0.88;0.88;;;10.80;99.90;;;;;;4995039;28;20214;-65
2022/04/05 15:47:06;;;;;;;0.82;0.77;;;10.90;99.90;;;;;;4994718;28;20210;-66
2022/04/05 15:49:33;;;;;;;1.00;1.00;;;11.00;99.90;;;;;;4994845;28;20265;-65
2022/04/05 15:52:00;;;;;;;1.17;1.17;;;11.10;99.90;;;;;;4994948;28;20228;-65
2022/04/05 15:54:28;;;;;;;1.10;1.10;;;11.20;99.90;;;;;;4994945;28;20202;-66
2022/04/05 15:56:56;;;;;;;1.00;1.00;;;11.20;99.90;;;;;;4994827;28;20205;-65
2022/04/05 15:59:23;;;;;;;0.90;0.90;;;11.20;99.90;;;;;;4994843;28;20209;-67
2022/04/05 16:01:50;;;;;;;1.30;1.20;;;11.20;99.90;;;;;;4995021;28;20750;-66
2022/04/05 16:04:18;;;;;;;0.90;0.90;;;11.10;99.90;;;;;;4994813;28;20220;-66
2022/04/05 16:06:45;;;;;;;1.30;1.20;;;11.20;99.90;;;;;;4995095;28;20239;-66
2022/04/05 16:09:12;;;;;;;1.10;1.10;;;11.30;99.90;;;;;;4995065;28;20215;-66
2022/04/05 16:11:39;;;;;;;1.27;1.13;;;11.30;99.90;;;;;;4995059;28;20205;-66
2022/04/05 16:14:06;;;;;;;1.15;1.08;;;11.40;99.90;;;;;;4995620;28;20211;-65
2022/04/05 16:16:34;;;;;;;1.10;1.10;;;11.40;99.90;;;;;;4995189;28;20230;-66
2022/04/05 16:19:01;;;;;;;1.17;1.13;;;11.40;99.90;;;;;;4995764;28;20227;-66
2022/04/05 16:21:29;;;;;;;0.90;0.90;;;11.30;99.90;;;;;;4996616;28;20608;-65
2022/04/05 16:23:56;;;;;;;0.95;0.80;;;11.40;99.90;;;;;;4994648;28;20227;-67
2022/04/05 16:26:23;;;;;;;0.82;0.82;;;11.30;99.90;;;;;;4994783;28;20191;-65
2022/04/05 16:28:51;;;;;;;1.00;1.00;;;11.30;99.90;;;;;;4994110;28;20209;-65
2022/04/05 16:31:18;;;;;;;1.02;1.02;;;11.30;99.90;;;;;;4994649;28;20198;-66
2022/04/05 16:33:45;;;;;;;0.90;0.90;;;11.20;99.90;;;;;;4994504;28;20305;-67
2022/04/05 16:36:13;;;;;;;0.90;0.90;;;11.10;99.90;;;;;;4994674;28;20682;-68
2022/04/05 16:38:42;;;;;;;1.00;1.00;;;11.00;99.90;;;;;;4995124;28;20268;-68
2022/04/05 16:41:09;;;;;;;0.90;0.90;;;10.90;99.90;;;;;;4995756;28;20289;-68
2022/04/05 16:43:36;;;;;;;0.90;0.90;;;10.80;99.90;;;;;;4997580;28;20223;-68
2022/04/05 16:46:04;;;;;;;0.85;0.85;;;10.70;99.90;;;;;;4998091;28;20294;-67
2022/04/05 16:48:31;;;;;;;0.80;0.80;;;10.70;99.90;;;;;;4997866;28;20213;-66
2022/04/05 16:50:58;;;;;;;0.90;0.90;;;10.70;99.90;;;;;;4995601;28;20233;-67
2022/04/05 16:53:27;;;;;;;0.65;0.65;;;10.60;99.90;;;;;;4995573;28;20223;-67
2022/04/05 16:55:57;;;;;;;0.70;0.70;;;10.70;99.90;;;;;;4997084;28;20266;-66
2022/04/05 16:58:24;;;;;;;0.80;0.80;;;10.60;99.90;;;;;;4998335;28;20206;-67
2022/04/05 17:00:51;;;;;;;0.70;0.70;;;10.70;99.90;;;;;;4999477;28;20202;-67
2022/04/05 17:03:18;;;;;;;0.70;0.70;;;10.60;99.90;;;;;;4999829;28;20258;-67
2022/04/05 17:05:45;;;;;;;0.65;0.65;;;10.60;99.90;;;;;;5000441;28;20218;-67
2022/04/05 17:08:13;;;;;;;0.73;0.73;;;10.50;99.90;;;;;;5000352;28;20241;-67
2022/04/05 17:10:40;;;;;;;0.60;0.60;;;10.50;99.90;;;;;;5001027;28;20258;-67
2022/04/05 17:13:10;;;;;;;0.90;0.90;;;10.50;99.90;;;;;;5004122;28;20228;-68
2022/04/05 17:15:37;;;;;;;0.77;0.77;;;10.40;99.90;;;;;;5004806;28;20289;-66
2022/04/05 17:18:04;;;;;;;0.65;0.65;;;10.40;99.90;;;;;;5003289;28;20301;-67
2022/04/05 17:20:31;;;;;;;0.70;0.70;;;10.40;99.90;;;;;;5003233;28;20281;-68
2022/04/05 17:22:57;;;;;;;0.75;0.75;;;10.30;99.90;;;;;;5004298;28;20253;-67
2022/04/05 17:25:25;;;;;;;0.68;0.68;;;10.30;99.90;;;;;;5006426;28;20305;-67
2022/04/05 17:27:52;;;;;;;0.75;0.73;;;10.20;99.90;;;;;;5004083;28;20202;-68
2022/04/05 17:30:20;;;;;;;0.60;0.60;;;10.20;99.90;;;;;;5000948;28;20246;-67
2022/04/05 17:32:48;;;;;;;0.70;0.70;;;10.20;99.90;;;;;;5002371;28;20313;-68
2022/04/05 17:35:15;;;;;;;0.65;0.65;;;10.10;99.90;;;;;;5002449;28;20190;-67
2022/04/05 17:37:43;;;;;;;1.00;0.70;;;10.10;99.90;;;;;;5003099;28;20203;-66
2022/04/05 17:40:12;;;;;;;0.70;0.70;;;10.00;99.90;;;;;;5003075;28;20689;-67
2022/04/05 17:42:39;;;;;;;0.80;0.80;;;10.00;99.90;;;;;;5000836;28;20219;-67
2022/04/05 17:45:07;;;;;;;0.70;0.70;;;9.90;99.90;;;;;;4997766;28;20229;-68
2022/04/05 17:47:36;;;;;;;0.52;0.52;;;9.90;99.90;;;;;;4997420;28;20261;-67
2022/04/05 17:50:05;;;;;;;0.70;0.70;;;9.90;99.90;;;;;;4997250;28;20704;-68
2022/04/05 17:52:32;;;;;;;0.70;0.70;;;9.80;99.90;;;;;;4997699;28;20218;-67
2022/04/05 17:54:59;;;;;;;0.60;0.60;;;9.80;99.90;;;;;;4997079;28;20238;-66
2022/04/05 17:57:26;;;;;;;0.70;0.70;;;9.80;99.90;;;;;;4997124;28;20238;-66
2022/04/05 17:59:53;;;;;;;0.70;0.70;;;9.70;99.90;;;;;;4997134;28;20227;-68
2022/04/05 18:02:20;;;;;;;0.68;0.60;;;9.70;99.90;;;;;;4996761;28;20274;-67
2022/04/05 18:04:48;;;;;;;0.90;0.63;;;9.60;99.90;;;;;;4997309;28;20246;-68
2022/04/05 18:07:16;;;;;;;0.68;0.68;;;9.60;99.90;;;;;;4998150;28;20202;-68
2022/04/05 18:09:45;;;;;;;0.68;0.68;;;9.60;99.90;;;;;;4996725;28;20269;-68
2022/04/05 18:12:13;;;;;;;1.00;0.80;;;9.50;99.90;;;;;;4996788;28;20265;-68
2022/04/05 18:14:41;;;;;;;0.60;0.60;;;9.50;99.90;;;;;;4997260;28;20280;-68
2022/04/05 18:17:09;;;;;;;0.98;0.98;;;9.40;99.90;;;;;;4997367;28;20210;-68
2022/04/05 18:19:36;;;;;;;0.93;0.93;;;9.40;99.90;;;;;;4997652;28;20666;-68
2022/04/05 18:22:05;;;;;;;1.10;1.02;;;9.40;99.90;;;;;;4997280;28;20222;-68
2022/04/05 18:24:33;;;;;;;1.08;1.08;;;9.30;99.90;;;;;;4997296;28;20203;-68
2022/04/05 18:27:00;;;;;;;0.98;0.98;;;9.30;99.90;;;;;;4997284;28;20338;-68
2022/04/05 18:29:28;;;;;;;0.80;0.80;;;9.20;99.90;;;;;;4996782;28;20191;-68
2022/04/05 18:31:55;;;;;;;0.80;0.80;;;9.20;99.90;;;;;;4997109;28;20206;-68
2022/04/05 18:34:22;;;;;;;0.85;0.85;;;9.10;99.90;;;;;;4996539;28;20308;-67
2022/04/05 18:36:50;;;;;;;0.80;0.80;;;9.10;99.90;;;;;;4996802;28;20273;-67
2022/04/05 18:39:20;;;;;;;0.60;0.60;;;9.00;99.90;;;;;;4996258;28;20729;-68
2022/04/05 18:41:48;;;;;;;0.77;0.77;;;9.00;99.90;;;;;;4997328;28;20209;-68
2022/04/05 18:44:16;;;;;;;0.80;0.80;;;8.90;99.90;;;;;;4996535;28;20210;-68
2022/04/05 18:46:44;;;;;;;0.80;0.80;;;8.90;99.90;;;;;;4996875;28;20241;-68
2022/04/05 18:49:11;;;;;;;0.70;0.70;;;8.80;99.90;;;;;;4996409;28;20249;-68
2022/04/05 18:51:38;;;;;;;0.80;0.80;;;8.70;99.90;;;;;;4997432;28;20219;-67
2022/04/05 18:54:05;;;;;;;0.88;0.88;;;8.70;99.90;;;;;;4998501;28;20650;-68
2022/04/05 18:56:34;;;;;;;0.68;0.68;;;8.70;99.90;;;;;;4996815;28;20202;-67
2022/04/05 18:59:01;;;;;;;0.77;0.77;;;8.60;99.90;;;;;;4996379;28;20571;-67
2022/04/05 19:01:28;;;;;;;0.73;0.73;;;8.60;99.90;;;;;;4996310;28;20214;-65
2022/04/05 19:03:55;;;;;;;0.80;0.80;;;8.60;99.90;;;;;;4995640;28;20234;-65
2022/04/05 19:06:22;;;;;;;0.88;0.88;;;8.60;99.90;;;;;;4996016;28;20237;-65
2022/04/05 19:08:49;;;;;;;0.80;0.80;;;8.60;99.90;;;;;;4996023;28;20191;-65
2022/04/05 19:11:16;;;;;;;0.82;0.82;;;8.60;99.90;;;;;;4995718;28;20222;-65
2022/04/05 19:13:44;;;;;;;0.80;0.80;;;8.60;99.90;;;;;;4996132;28;20314;-66
2022/04/05 19:16:11;;;;;;;0.70;0.70;;;8.60;99.90;;;;;;4996042;28;20226;-66
2022/04/05 19:18:38;;;;;;;0.82;0.82;;;8.60;99.90;;;;;;4995623;28;20639;-65
2022/04/05 19:21:08;;;;;;;0.60;0.60;;;8.60;99.90;;;;;;4995389;28;20542;-66
2022/04/05 19:23:35;;;;;;;0.70;0.70;;;8.50;99.90;;;;;;4996462;28;20318;-66
2022/04/05 19:26:02;;;;;;;0.70;0.70;;;8.60;99.90;;;;;;4995388;28;20709;-66
2022/04/05 19:28:31;;;;;;;0.63;0.63;;;8.60;99.90;;;;;;4995664;28;20234;-66
2022/04/05 19:31:03;;;;;;;0.75;0.75;;;8.60;99.90;;;;;;4995464;28;20622;-66
2022/04/05 19:33:31;;;;;;;0.70;0.70;;;8.50;99.90;;;;;;4996172;28;20226;-65
2022/04/05 19:35:59;;;;;;;0.70;0.70;;;8.50;99.90;;;;;;4995635;28;20209;-66
2022/04/05 19:38:26;;;;;;;0.68;0.68;;;8.50;99.90;;;;;;4995741;28;20688;-65
2022/04/05 19:40:53;;;;;;;0.55;0.55;;;8.50;99.90;;;;;;4996013;28;20230;-65
2022/04/05 19:43:20;;;;;;;0.60;0.60;;;8.50;99.90;;;;;;4996067;28;20644;-65
2022/04/05 19:45:47;;;;;;;0.65;0.65;;;8.50;99.90;;;;;;4995904;28;20238;-65
2022/04/05 19:48:16;;;;;;;0.70;0.70;;;8.50;99.90;;;;;;4996460;28;20213;-65
2022/04/05 19:50:42;;;;;;;0.50;0.50;;;8.40;99.90;;;;;;4995725;28;20222;-66
2022/04/05 19:53:12;;;;;;;0.75;0.75;;;8.40;99.90;;;;;;4995475;28;20234;-67
2022/04/05 19:55:40;;;;;;;0.52;0.52;;;8.40;99.90;;;;;;4994701;28;20301;-65
2022/04/05 19:58:07;;;;;;;0.77;0.77;;;8.40;99.90;;;;;;4994819;28;20202;-65
2022/04/05 20:00:35;;;;;;;0.60;0.60;;;8.30;99.90;;;;;;4995152;28;20207;-65
2022/04/05 20:03:02;;;;;;;0.70;0.70;;;8.30;99.90;;;;;;4995138;28;20219;-65
2022/04/05 20:05:31;;;;;;;0.70;0.70;;;8.30;99.90;;;;;;4995078;28;20547;-65
2022/04/05 20:07:58;;;;;;;0.50;0.50;;;8.20;99.90;;;;;;4995183;28;20206;-65
2022/04/05 20:10:25;;;;;;;0.50;0.50;;;8.20;99.90;;;;;;4994691;28;20229;-65
2022/04/05 20:12:52;;;;;;;0.63;0.63;;;8.20;99.90;;;;;;4994169;28;20249;-65
2022/04/05 20:15:18;;;;;;;0.85;0.85;;;8.20;99.90;;;;;;4994975;28;20693;-66
2022/04/05 20:20:34;;;;;;;0.50;0.50;;;8.20;99.90;;;;;;4995269;28;20643;-65
2022/04/05 20:23:02;;;;;;;0.50;0.50;;;8.20;99.90;;;;;;4994846;28;20309;-66
2022/04/05 20:25:29;;;;;;;0.60;0.60;;;8.10;99.90;;;;;;4994259;28;20198;-66
2022/04/05 20:27:57;;;;;;;0.68;0.68;;;8.10;99.90;;;;;;4994668;28;20241;-66
2022/04/05 20:30:24;;;;;;;0.60;0.60;;;8.10;99.90;;;;;;4994211;28;20215;-65
2022/04/05 20:32:51;;;;;;;0.60;0.60;;;8.10;99.90;;;;;;4993986;28;20222;-65
2022/04/05 20:35:18;;;;;;;0.60;0.60;;;8.00;99.90;;;;;;4993992;28;20211;-65
2022/04/05 20:37:46;;;;;;;0.60;0.60;;;8.00;99.90;;;;;;4994266;28;20203;-65
2022/04/05 20:40:14;;;;;;;0.60;0.60;;;8.00;99.90;;;;;;4994768;28;20550;-65
2022/04/05 20:42:42;;;;;;;0.75;0.75;;;8.00;99.90;;;;;;4993879;28;20337;-65
2022/04/05 20:45:10;;;;;;;0.70;0.70;;;7.90;99.90;;;;;;4993877;28;20741;-65
2022/04/05 20:47:37;;;;;;;1.00;1.00;;;7.90;99.90;;;;;;4993183;28;20270;-66
2022/04/05 20:50:05;;;;;;;0.80;0.80;;;7.80;99.90;;;;;;4993619;28;20199;-65
2022/04/05 20:52:32;;;;;;;1.08;1.08;;;7.80;99.90;;;;;;4994079;28;20588;-65
2022/04/05 20:55:01;;;;;;;1.20;1.20;;;7.80;99.90;;;;;;4993620;28;20666;-65
2022/04/05 20:57:27;;;;;;;1.10;1.10;;;7.70;99.90;;;;;;4993637;28;20674;-66
2022/04/05 20:59:54;;;;;;;1.00;1.00;;;7.70;99.90;;;;;;4994034;28;20206;-65
2022/04/05 21:02:23;;;;;;;0.82;0.82;;;7.60;99.90;;;;;;4994267;28;20219;-65
2022/04/05 21:04:50;;;;;;;1.00;1.00;;;7.50;99.90;;;;;;4993831;28;20745;-64
2022/04/05 21:07:18;;;;;;;0.77;0.77;;;7.50;99.90;;;;;;4993606;28;20607;-65
2022/04/05 21:09:46;;;;;;;0.85;0.85;;;7.40;99.90;;;;;;4993583;28;20709;-65
2022/04/05 21:12:14;;;;;;;0.73;0.73;;;7.30;99.90;;;;;;4993582;28;20592;-65
2022/04/05 21:14:41;;;;;;;0.75;0.75;;;7.20;99.90;;;;;;4993771;28;20597;-66
2022/04/05 21:17:08;;;;;;;0.70;0.70;;;7.20;99.90;;;;;;4994250;28;20285;-66
2022/04/05 21:19:36;;;;;;;0.63;0.63;;;7.10;99.90;;;;;;4993812;28;20206;-66
2022/04/05 21:22:04;;;;;;;0.50;0.50;;;7.00;99.90;;;;;;4993592;28;20560;-66
